createdAt,value
2023-05-17T00:01:04.296Z,41.60
2023-05-17T00:04:06.310Z,41.65
2023-05-17T00:07:08.380Z,41.84
2023-05-17T00:10:10.748Z,41.90
2023-05-17T00:13:12.646Z,41.95
2023-05-17T00:16:14.666Z,42.16
2023-05-17T00:19:16.760Z,42.37
2023-05-17T00:22:18.780Z,42.76
2023-05-17T00:25:20.675Z,43.11
2023-05-17T00:28:22.571Z,43.63
2023-05-17T00:31:26.025Z,43.97
2023-05-17T00:34:28.337Z,44.17
2023-05-17T00:37:30.246Z,44.12
2023-05-17T00:40:32.168Z,44.24
2023-05-17T00:43:34.498Z,44.18
2023-05-17T00:46:36.538Z,44.18
2023-05-17T00:49:38.617Z,44.28
2023-05-17T00:52:40.754Z,44.41
2023-05-17T00:55:46.383Z,44.26
2023-05-17T00:58:48.644Z,44.61
2023-05-17T01:01:51.652Z,44.46
2023-05-17T01:04:53.858Z,44.66
2023-05-17T01:07:55.869Z,44.76
2023-05-17T01:11:16.968Z,44.64
2023-05-17T01:14:48.450Z,45.22
2023-05-17T01:17:59.680Z,45.02
2023-05-17T01:21:07.480Z,45.22
2023-05-17T01:24:35.332Z,45.23
2023-05-17T01:27:41.425Z,45.27
2023-05-17T01:30:46.575Z,45.32
2023-05-17T01:33:48.756Z,45.20
2023-05-17T01:36:50.739Z,45.35
2023-05-17T01:39:52.860Z,45.53
2023-05-17T01:43:00.568Z,45.75
2023-05-17T01:46:28.659Z,46.16
2023-05-17T01:49:32.586Z,45.88
2023-05-17T01:52:51.525Z,46.00
2023-05-17T01:56:04.793Z,45.97
2023-05-17T01:59:07.463Z,45.90
2023-05-17T02:02:09.661Z,46.16
2023-05-17T02:05:11.879Z,46.54
2023-05-17T02:08:15.351Z,46.58
2023-05-17T02:11:17.470Z,46.92
2023-05-17T02:14:19.368Z,47.55
2023-05-17T02:17:21.301Z,47.04
2023-05-17T02:20:23.371Z,47.21
2023-05-17T02:23:27.414Z,47.57
2023-05-17T02:26:29.383Z,47.58
2023-05-17T02:29:31.868Z,47.45
2023-05-17T02:32:34.933Z,47.43
2023-05-17T02:35:37.011Z,47.22
2023-05-17T02:38:39.549Z,47.49
2023-05-17T02:41:41.462Z,47.27
2023-05-17T02:44:43.444Z,47.50
2023-05-17T02:47:45.479Z,47.53
2023-05-17T02:50:47.528Z,47.33
2023-05-17T02:53:49.518Z,47.62
2023-05-17T02:56:52.028Z,47.67
2023-05-17T02:59:53.929Z,47.93
2023-05-17T03:02:56.013Z,48.00
2023-05-17T03:06:02.685Z,48.23
2023-05-17T03:09:04.760Z,47.70
2023-05-17T03:12:08.612Z,47.83
2023-05-17T03:15:11.212Z,47.91
2023-05-17T03:18:13.239Z,47.71
2023-05-17T03:21:15.824Z,47.72
2023-05-17T03:24:18.417Z,48.11
2023-05-17T03:27:20.663Z,47.64
2023-05-17T03:30:23.331Z,47.90
2023-05-17T03:33:26.058Z,48.18
2023-05-17T03:36:28.561Z,47.88
2023-05-17T03:39:31.415Z,47.64
2023-05-17T03:42:33.557Z,47.41
2023-05-17T03:45:35.899Z,47.10
2023-05-17T03:48:37.863Z,46.79
2023-05-17T03:51:40.505Z,46.76
2023-05-17T03:54:42.589Z,46.27
2023-05-17T03:57:44.685Z,45.73
2023-05-17T04:00:46.852Z,45.72
2023-05-17T04:03:52.701Z,45.69
2023-05-17T04:06:56.729Z,45.60
2023-05-17T04:09:59.576Z,45.56
2023-05-17T04:13:04.172Z,45.54
2023-05-17T04:16:07.888Z,45.29
2023-05-17T04:19:11.323Z,45.19
2023-05-17T04:22:14.557Z,44.34
2023-05-17T04:25:18.610Z,43.98
2023-05-17T04:28:22.234Z,43.99
2023-05-17T04:31:24.243Z,43.46
2023-05-17T04:34:26.437Z,43.11
2023-05-17T04:37:31.091Z,42.18
2023-05-17T04:40:37.799Z,41.29
2023-05-17T04:43:40.459Z,40.88
2023-05-17T04:46:48.185Z,40.79
2023-05-17T04:49:51.577Z,40.25
2023-05-17T04:52:53.594Z,39.23
2023-05-17T04:55:55.796Z,38.84
2023-05-17T04:58:58.207Z,38.39
2023-05-17T05:02:00.278Z,37.61
2023-05-17T05:05:05.124Z,37.15
2023-05-17T05:08:09.538Z,37.13
2023-05-17T05:11:11.655Z,36.86
2023-05-17T05:14:13.812Z,35.91
2023-05-17T05:17:16.368Z,35.59
2023-05-17T05:20:18.598Z,34.93
2023-05-17T05:23:20.701Z,34.83
2023-05-17T05:26:24.219Z,34.62
2023-05-17T05:29:26.889Z,34.52
2023-05-17T05:32:28.899Z,33.90
2023-05-17T05:35:31.065Z,33.68
2023-05-17T05:38:34.501Z,33.83
2023-05-17T05:41:37.158Z,32.96
2023-05-17T05:44:39.179Z,33.03
2023-05-17T05:47:41.296Z,33.17
2023-05-17T05:50:44.425Z,32.84
2023-05-17T05:53:46.511Z,31.80
2023-05-17T05:56:49.323Z,32.09
2023-05-17T05:59:53.649Z,31.24
2023-05-17T06:02:57.556Z,30.52
2023-05-17T06:05:59.733Z,30.83
2023-05-17T06:09:01.795Z,30.46
2023-05-17T06:12:03.842Z,30.04
2023-05-17T06:15:08.310Z,29.39
2023-05-17T06:18:10.418Z,28.92
2023-05-17T06:21:15.438Z,28.62
2023-05-17T06:24:19.255Z,28.61
2023-05-17T06:27:21.365Z,28.62
2023-05-17T06:30:23.196Z,28.15
2023-05-17T06:33:25.336Z,28.47
2023-05-17T06:36:27.359Z,28.21
2023-05-17T06:39:29.282Z,28.32
2023-05-17T06:42:31.251Z,28.18
2023-05-17T06:45:33.197Z,27.92
2023-05-17T06:48:35.272Z,27.98
2023-05-17T06:51:37.250Z,27.60
2023-05-17T06:54:39.224Z,26.95
2023-05-17T06:57:41.139Z,26.64
2023-05-17T07:00:43.133Z,26.54
2023-05-17T07:03:45.193Z,27.20
2023-05-17T07:06:47.323Z,27.08
2023-05-17T07:09:49.248Z,27.07
2023-05-17T07:12:51.236Z,26.44
2023-05-17T07:15:53.237Z,26.31
2023-05-17T07:18:55.218Z,26.58
2023-05-17T07:21:57.445Z,26.34
2023-05-17T07:24:59.345Z,26.61
2023-05-17T07:28:01.287Z,26.24
2023-05-17T07:31:03.257Z,26.53
2023-05-17T07:34:05.359Z,26.73
2023-05-17T07:37:07.629Z,26.01
2023-05-17T07:40:10.164Z,26.13
2023-05-17T07:43:12.112Z,26.30
2023-05-17T07:46:13.975Z,24.77
2023-05-17T07:49:16.048Z,25.28
2023-05-17T07:52:18.046Z,25.72
2023-05-17T07:55:20.732Z,25.62
2023-05-17T07:58:22.717Z,26.28
2023-05-17T08:01:27.175Z,26.14
2023-05-17T08:04:29.217Z,26.68
2023-05-17T08:07:31.115Z,26.00
2023-05-17T08:10:36.269Z,26.29
2023-05-17T08:13:38.504Z,26.19
2023-05-17T08:16:41.395Z,25.65
2023-05-17T08:19:43.493Z,25.68
2023-05-17T08:22:45.459Z,25.16
2023-05-17T08:25:47.349Z,24.90
2023-05-17T08:28:49.321Z,25.53
2023-05-17T08:31:52.898Z,25.61
2023-05-17T08:34:55.820Z,26.00
2023-05-17T08:37:57.910Z,26.07
2023-05-17T08:41:00.129Z,26.37
2023-05-17T08:44:03.762Z,25.71
2023-05-17T08:47:07.170Z,25.26
2023-05-17T08:50:09.638Z,24.93
2023-05-17T08:53:12.274Z,25.76
2023-05-17T08:56:16.744Z,25.82
2023-05-17T08:59:21.536Z,25.71
2023-05-17T09:02:23.564Z,25.70
2023-05-17T09:05:25.684Z,24.48
2023-05-17T09:08:30.234Z,24.96
2023-05-17T09:11:35.347Z,24.96
2023-05-17T09:14:37.296Z,24.53
2023-05-17T09:17:40.888Z,24.32
2023-05-17T09:20:43.474Z,24.78
2023-05-17T09:23:57.696Z,24.89
2023-05-17T09:27:07.320Z,25.18
2023-05-17T09:30:12.791Z,24.45
2023-05-17T09:33:17.644Z,24.26
2023-05-17T09:36:23.256Z,24.87
2023-05-17T09:39:25.582Z,24.36
2023-05-17T09:42:27.745Z,24.74
2023-05-17T09:45:32.495Z,25.29
2023-05-17T09:48:38.703Z,24.34
2023-05-17T09:51:43.605Z,23.66
2023-05-17T09:54:52.890Z,23.86
2023-05-17T09:58:03.404Z,25.15
2023-05-17T10:01:07.498Z,25.00
2023-05-17T10:04:11.168Z,25.27
2023-05-17T10:07:14.885Z,25.22
2023-05-17T10:10:18.355Z,25.55
2023-05-17T10:13:30.488Z,25.40
2023-05-17T10:16:34.361Z,24.79
2023-05-17T10:19:38.020Z,24.90
2023-05-17T10:22:40.406Z,24.38
2023-05-17T10:25:43.242Z,24.18
2023-05-17T10:28:46.531Z,24.26
2023-05-17T10:31:51.371Z,24.24
2023-05-17T10:35:05.999Z,24.83
2023-05-17T10:38:13.718Z,24.64
2023-05-17T10:41:18.416Z,23.61
2023-05-17T10:44:20.767Z,23.86
2023-05-17T10:47:31.964Z,23.71
2023-05-17T10:50:41.142Z,23.29
2023-05-17T10:54:12.692Z,23.77
2023-05-17T10:57:39.034Z,23.52
2023-05-17T11:00:51.667Z,24.01
2023-05-17T11:03:55.679Z,24.37
2023-05-17T11:07:32.389Z,26.26
2023-05-17T11:10:36.216Z,23.86
2023-05-17T11:13:52.573Z,24.11
2023-05-17T11:16:58.318Z,24.48
2023-05-17T11:20:13.689Z,24.23
2023-05-17T11:23:22.744Z,23.24
2023-05-17T11:26:45.730Z,22.99
2023-05-17T11:29:50.328Z,23.16
2023-05-17T11:33:02.633Z,22.50
2023-05-17T11:36:07.591Z,23.03
2023-05-17T11:39:11.024Z,22.85
2023-05-17T11:42:25.282Z,23.10
2023-05-17T11:45:28.154Z,23.79
2023-05-17T11:48:31.121Z,23.58
2023-05-17T11:51:33.804Z,24.26
2023-05-17T11:54:40.340Z,24.10
2023-05-17T11:57:43.939Z,23.96
2023-05-17T12:00:46.424Z,23.71
2023-05-17T12:03:57.192Z,23.53
2023-05-17T12:06:59.215Z,22.96
2023-05-17T12:10:01.169Z,23.47
2023-05-17T12:13:04.081Z,24.06
2023-05-17T12:16:17.485Z,23.11
2023-05-17T12:19:22.346Z,23.74
2023-05-17T12:22:24.376Z,23.72
2023-05-17T12:25:28.099Z,23.86
2023-05-17T12:28:30.210Z,24.22
2023-05-17T12:31:39.509Z,23.83
2023-05-17T12:34:41.946Z,23.68
2023-05-17T12:37:44.302Z,23.83
2023-05-17T12:44:52.340Z,23.40
2023-05-17T12:47:54.353Z,23.81
2023-05-17T12:50:56.524Z,24.47
2023-05-17T12:54:01.269Z,23.98
2023-05-17T12:57:15.389Z,23.33
2023-05-17T13:00:18.236Z,23.71
2023-05-17T13:03:20.344Z,23.78
2023-05-17T13:06:22.665Z,23.52
2023-05-17T13:09:27.999Z,22.51
2023-05-17T13:12:29.987Z,23.06
2023-05-17T13:15:33.488Z,23.51
2023-05-17T13:18:49.098Z,23.33
2023-05-17T13:21:51.082Z,23.04
2023-05-17T13:24:53.862Z,23.72
2023-05-17T13:27:55.953Z,23.79
2023-05-17T13:30:57.887Z,24.22
2023-05-17T13:33:59.829Z,24.83
2023-05-17T13:37:01.979Z,24.68
2023-05-17T13:40:04.925Z,25.00
2023-05-17T13:43:09.765Z,25.48
2023-05-17T13:46:11.865Z,24.87
2023-05-17T13:49:14.250Z,23.95
2023-05-17T13:52:18.681Z,24.37
2023-05-17T13:55:20.808Z,24.62
2023-05-17T13:58:22.691Z,24.87
2023-05-17T14:01:25.025Z,24.46
2023-05-17T14:04:26.942Z,24.64
2023-05-17T14:07:28.879Z,25.22
2023-05-17T14:10:31.110Z,25.60
2023-05-17T14:13:33.018Z,25.44
2023-05-17T14:16:34.916Z,25.46
2023-05-17T14:19:36.858Z,25.01
2023-05-17T14:22:38.846Z,25.10
2023-05-17T14:25:43.740Z,24.74
2023-05-17T14:28:45.782Z,24.89
2023-05-17T14:31:47.826Z,24.23
2023-05-17T14:34:49.847Z,24.46
2023-05-17T14:37:51.789Z,24.15
2023-05-17T14:40:53.649Z,23.92
2023-05-17T14:43:55.829Z,24.39
2023-05-17T14:46:57.745Z,24.40
2023-05-17T14:49:59.554Z,24.62
2023-05-17T14:53:01.690Z,24.46
2023-05-17T14:56:03.610Z,24.25
2023-05-17T14:59:05.426Z,24.92
2023-05-17T15:02:07.840Z,24.81
2023-05-17T15:08:14.337Z,24.60
2023-05-17T15:11:16.279Z,24.47
2023-05-17T15:14:24.898Z,24.74
2023-05-17T15:17:27.129Z,24.86
2023-05-17T15:20:29.479Z,24.66
2023-05-17T15:23:31.704Z,24.76
2023-05-17T15:26:33.640Z,24.99
2023-05-17T15:29:38.257Z,24.85
2023-05-17T15:32:40.329Z,25.33
2023-05-17T15:35:43.195Z,25.25
2023-05-17T15:38:45.276Z,25.55
2023-05-17T15:41:47.555Z,25.66
2023-05-17T15:44:49.484Z,25.95
2023-05-17T15:47:51.360Z,25.89
2023-05-17T15:50:53.289Z,26.29
2023-05-17T15:53:55.918Z,26.44
2023-05-17T15:56:57.909Z,26.58
2023-05-17T15:59:59.756Z,26.77
2023-05-17T16:03:01.752Z,26.87
2023-05-17T16:06:04.580Z,27.21
2023-05-17T16:09:06.814Z,27.06
2023-05-17T16:12:08.730Z,27.12
2023-05-17T16:15:10.813Z,27.24
2023-05-17T16:18:15.323Z,27.36
2023-05-17T16:21:17.440Z,27.77
2023-05-17T16:24:21.560Z,27.86
2023-05-17T16:27:23.570Z,28.14
2023-05-17T16:30:25.649Z,28.43
2023-05-17T16:33:27.673Z,28.57
2023-05-17T16:36:29.661Z,28.22
2023-05-17T16:39:31.775Z,28.64
2023-05-17T16:42:33.659Z,28.79
2023-05-17T16:45:35.903Z,29.02
2023-05-17T16:48:37.868Z,29.49
2023-05-17T16:51:39.770Z,29.54
2023-05-17T16:54:42.197Z,29.93
2023-05-17T16:57:44.240Z,30.62
2023-05-17T17:00:46.237Z,31.21
2023-05-17T17:03:48.499Z,32.54
2023-05-17T17:06:51.417Z,34.16
2023-05-17T17:09:53.286Z,33.04
2023-05-17T17:12:55.252Z,33.27
2023-05-17T17:15:57.250Z,33.90
2023-05-17T17:18:59.601Z,34.42
2023-05-17T17:22:05.521Z,35.13
2023-05-17T17:25:07.938Z,36.20
2023-05-17T17:28:09.906Z,36.66
2023-05-17T17:31:12.104Z,37.22
2023-05-17T17:34:14.078Z,37.51
2023-05-17T17:37:16.011Z,38.33
2023-05-17T17:40:18.465Z,38.51
2023-05-17T17:43:21.431Z,39.19
2023-05-17T17:46:24.514Z,38.81
2023-05-17T17:49:26.428Z,39.70
2023-05-17T17:52:28.345Z,40.27
2023-05-17T17:55:30.382Z,40.62
2023-05-17T17:58:32.454Z,40.92
2023-05-17T18:01:37.491Z,40.45
2023-05-17T18:04:40.713Z,40.93
2023-05-17T18:07:42.790Z,41.49
2023-05-17T18:10:44.720Z,42.00
2023-05-17T18:13:47.051Z,42.00
2023-05-17T18:16:48.978Z,42.28
2023-05-17T18:19:51.116Z,42.73
2023-05-17T18:22:54.211Z,42.93
2023-05-17T18:25:56.113Z,43.56
2023-05-17T18:28:58.142Z,43.63
2023-05-17T18:32:01.745Z,43.78
2023-05-17T18:35:03.944Z,43.88
2023-05-17T18:38:05.980Z,44.58
2023-05-17T18:41:07.864Z,44.26
2023-05-17T18:44:09.764Z,44.40
2023-05-17T18:47:12.206Z,44.62
2023-05-17T18:50:14.068Z,47.11
2023-05-17T18:53:16.149Z,44.99
2023-05-17T18:56:22.937Z,45.19
2023-05-17T18:59:24.913Z,45.70
2023-05-17T19:02:26.902Z,45.93
2023-05-17T19:05:28.932Z,46.07
2023-05-17T19:08:30.791Z,46.36
2023-05-17T19:11:33.101Z,46.26
2023-05-17T19:14:35.176Z,46.48
2023-05-17T19:17:37.403Z,46.50
2023-05-17T19:20:39.407Z,46.61
2023-05-17T19:23:41.322Z,46.68
2023-05-17T19:26:43.278Z,47.15
2023-05-17T19:29:46.457Z,46.98
2023-05-17T19:32:49.855Z,47.02
2023-05-17T19:35:52.184Z,47.36
2023-05-17T19:38:54.695Z,47.66
2023-05-17T19:41:56.717Z,47.95
2023-05-17T19:44:58.630Z,47.95
2023-05-17T19:48:00.982Z,48.22
2023-05-17T19:51:03.664Z,48.33
2023-05-17T19:54:05.582Z,49.36
2023-05-17T19:57:08.158Z,48.09
2023-05-17T20:00:10.975Z,48.39
2023-05-17T20:03:12.931Z,48.49
2023-05-17T20:06:15.181Z,49.03
2023-05-17T20:09:17.147Z,49.40
2023-05-17T20:12:19.534Z,49.09
2023-05-17T20:15:22.827Z,49.18
2023-05-17T20:18:27.679Z,48.93
2023-05-17T20:21:30.040Z,49.31
2023-05-17T20:24:34.875Z,49.39
2023-05-17T20:27:36.895Z,49.58
2023-05-17T20:30:42.115Z,49.50
2023-05-17T20:33:44.619Z,49.85
2023-05-17T20:36:46.537Z,49.84
2023-05-17T20:39:48.935Z,49.89
2023-05-17T20:42:52.996Z,49.87
2023-05-17T20:45:55.400Z,50.33
2023-05-17T20:48:58.260Z,50.57
2023-05-17T20:52:03.578Z,51.78
2023-05-17T20:55:06.568Z,50.22
2023-05-17T20:58:08.554Z,50.21
2023-05-17T21:01:10.782Z,50.11
2023-05-17T21:04:14.372Z,50.13
2023-05-17T21:07:17.502Z,50.16
2023-05-17T21:10:20.718Z,50.25
2023-05-17T21:13:24.039Z,50.26
2023-05-17T21:16:26.026Z,49.91
2023-05-17T21:19:28.069Z,49.88
2023-05-17T21:22:30.059Z,50.11
2023-05-17T21:25:32.339Z,49.55
2023-05-17T21:28:35.536Z,49.22
2023-05-17T21:31:37.743Z,49.22
2023-05-17T21:34:40.051Z,48.87
2023-05-17T21:37:42.397Z,48.64
2023-05-17T21:40:44.346Z,48.60
2023-05-17T21:43:46.312Z,49.04
2023-05-17T21:46:48.285Z,49.26
2023-05-17T21:49:50.537Z,49.12
2023-05-17T21:52:52.418Z,48.75
2023-05-17T21:56:02.242Z,49.22
2023-05-17T21:59:04.862Z,48.79
2023-05-17T22:02:08.654Z,49.16
2023-05-17T22:05:11.237Z,49.44
2023-05-17T22:08:13.162Z,49.86
2023-05-17T22:11:15.103Z,49.82
2023-05-17T22:14:17.029Z,49.53
2023-05-17T22:17:19.091Z,50.15
2023-05-17T22:20:23.920Z,50.15
2023-05-17T22:23:26.574Z,50.12
2023-05-17T22:26:28.614Z,50.25
2023-05-17T22:29:30.625Z,50.01
2023-05-17T22:32:32.618Z,50.16
2023-05-17T22:35:34.636Z,50.39
2023-05-17T22:38:36.562Z,50.42
2023-05-17T22:41:38.552Z,50.88
2023-05-17T22:44:40.491Z,50.74
2023-05-17T22:47:46.931Z,51.02
2023-05-17T22:50:49.105Z,51.10
2023-05-17T22:53:51.075Z,51.66
2023-05-17T22:56:53.044Z,51.88
2023-05-17T22:59:54.954Z,52.05
2023-05-17T23:02:57.044Z,51.94
2023-05-17T23:06:05.271Z,52.17
2023-05-17T23:09:07.265Z,52.21
2023-05-17T23:12:14.283Z,52.14
2023-05-17T23:15:16.380Z,52.60
2023-05-17T23:18:18.937Z,52.90
2023-05-17T23:21:21.032Z,52.77
2023-05-17T23:24:25.966Z,53.39
2023-05-17T23:27:27.978Z,53.42
2023-05-17T23:30:30.282Z,53.83
2023-05-17T23:33:33.970Z,53.87
2023-05-17T23:36:35.888Z,53.84
2023-05-17T23:39:37.802Z,54.42
2023-05-17T23:42:40.903Z,55.03
2023-05-17T23:45:42.779Z,54.98
2023-05-17T23:48:44.747Z,54.80
2023-05-17T23:51:46.652Z,55.12
2023-05-17T23:54:48.578Z,55.46
2023-05-17T23:57:50.451Z,55.64
